Time;durP1;ratioP1;P1;durP2;ratioP2;P2;SDS_P1;SDS_P2;PMS_P1;PMS_P2;Temp;Humidity;BMP_temperature;BMP_pressure;BME280_temperature;BME280_humidity;BME280_pressure;Samples;Min_cycle;Max_cycle;Signal;HPM_P1;HPM_P2
2021/12/31 00:00:28;;;;;;;2.60;1.00;;;;;;;;;;5123117;28;20214;-68
2021/12/31 00:02:56;;;;;;;0.80;0.80;;;;;;;;;;5123366;28;20210;-68
2021/12/31 00:05:22;;;;;;;3.13;0.90;;;;;;;;;;5123306;28;20202;-68
2021/12/31 00:07:49;;;;;;;0.90;0.85;;;;;;;;;;5123173;28;20195;-68
2021/12/31 00:10:15;;;;;;;0.95;0.80;;;;;;;;;;5123276;28;20514;-68
2021/12/31 00:12:43;;;;;;;1.45;0.70;;;;;;;;;;5123234;28;20195;-68
2021/12/31 00:15:10;;;;;;;1.08;0.85;;;;;;;;;;5123023;28;20240;-68
2021/12/31 00:17:38;;;;;;;1.48;0.98;;;;;;;;;;5123286;28;20495;-68
2021/12/31 00:20:11;;;;;;;1.95;0.80;;;;;;;;;;5123005;28;20543;-68
2021/12/31 00:25:19;;;;;;;1.15;1.05;;;;;;;;;;5119969;28;20187;-68
2021/12/31 00:27:46;;;;;;;1.02;0.93;;;;;;;;;;5123144;28;20368;-68
2021/12/31 00:30:12;;;;;;;4.45;1.15;;;;;;;;;;5122992;28;20191;-68
2021/12/31 00:32:39;;;;;;;0.80;0.77;;;;;;;;;;5123298;28;20195;-68
2021/12/31 00:35:07;;;;;;;1.98;1.02;;;;;;;;;;5122578;28;20202;-68
2021/12/31 00:37:34;;;;;;;1.30;0.90;;;;;;;;;;5123000;28;20195;-68
2021/12/31 00:40:01;;;;;;;1.58;0.85;;;;;;;;;;5123014;28;20405;-68
2021/12/31 00:42:28;;;;;;;1.52;1.42;;;;;;;;;;5123071;28;20195;-68
2021/12/31 00:44:54;;;;;;;2.28;1.10;;;;;;;;;;5122305;28;20557;-68
2021/12/31 00:47:21;;;;;;;1.30;1.30;;;;;;;;;;5122607;28;20194;-68
2021/12/31 00:49:47;;;;;;;2.60;2.08;;;;;;;;;;5122946;28;20210;-68
2021/12/31 00:52:15;;;;;;;1.02;1.00;;;;;;;;;;5122557;28;20269;-68
2021/12/31 00:54:42;;;;;;;0.90;0.90;;;;;;;;;;5122382;28;20217;-68
2021/12/31 00:57:09;;;;;;;2.33;1.80;;;;;;;;;;5122838;28;20379;-68
2021/12/31 00:59:35;;;;;;;1.23;1.17;;;;;;;;;;5122426;28;20502;-68
2021/12/31 01:02:03;;;;;;;1.75;1.30;;;;;;;;;;5122543;28;20195;-68
2021/12/31 01:04:30;;;;;;;3.42;2.25;;;;;;;;;;5122371;28;20210;-68
2021/12/31 01:06:57;;;;;;;2.75;1.65;;;;;;;;;;5122539;28;20530;-68
2021/12/31 01:09:25;;;;;;;1.13;1.13;;;;;;;;;;5122357;28;20232;-68
2021/12/31 01:11:51;;;;;;;1.35;1.10;;;;;;;;;;5122440;28;20191;-68
2021/12/31 01:14:26;;;;;;;3.13;1.60;;;;;;;;;;5122478;28;20398;-68
2021/12/31 01:16:58;;;;;;;1.38;1.27;;;;;;;;;;5122307;28;20232;-68
2021/12/31 01:22:08;;;;;;;2.10;1.40;;;;;;;;;;5122349;28;20197;-68
2021/12/31 01:24:36;;;;;;;1.10;0.80;;;;;;;;;;5122167;28;20397;-68
2021/12/31 01:27:02;;;;;;;1.08;0.77;;;;;;;;;;5122389;28;20195;-68
2021/12/31 01:29:29;;;;;;;0.90;0.90;;;;;;;;;;5122435;28;20195;-68
2021/12/31 01:31:55;;;;;;;1.67;1.15;;;;;;;;;;5122410;28;20198;-68
2021/12/31 01:34:24;;;;;;;1.13;1.10;;;;;;;;;;5122513;28;20195;-68
2021/12/31 01:36:50;;;;;;;2.13;1.00;;;;;;;;;;5122184;28;20227;-69
2021/12/31 01:39:16;;;;;;;1.13;1.10;;;;;;;;;;5122532;28;20187;-69
2021/12/31 01:41:44;;;;;;;1.63;0.93;;;;;;;;;;5121964;28;20260;-69
2021/12/31 01:44:11;;;;;;;0.80;0.80;;;;;;;;;;5122413;28;20256;-69
2021/12/31 01:46:40;;;;;;;1.20;1.10;;;;;;;;;;5122208;28;20215;-69
2021/12/31 01:49:17;;;;;;;0.95;0.95;;;;;;;;;;5125937;28;20502;-69
2021/12/31 01:51:44;;;;;;;3.13;1.33;;;;;;;;;;5126117;28;20179;-69
2021/12/31 01:54:10;;;;;;;3.95;1.10;;;;;;;;;;5125986;28;20484;-68
2021/12/31 01:56:37;;;;;;;0.95;0.95;;;;;;;;;;5125659;28;20195;-68
2021/12/31 01:59:07;;;;;;;1.90;0.90;;;;;;;;;;5125686;28;20409;-68
2021/12/31 02:01:35;;;;;;;2.78;1.00;;;;;;;;;;5125659;28;20211;-68
2021/12/31 02:04:02;;;;;;;1.38;0.90;;;;;;;;;;5126071;27;20240;-68
2021/12/31 02:06:29;;;;;;;0.90;0.90;;;;;;;;;;5125434;28;20534;-68
2021/12/31 02:08:56;;;;;;;3.10;1.00;;;;;;;;;;5125682;28;20198;-68
2021/12/31 02:11:22;;;;;;;0.95;0.82;;;;;;;;;;5125628;28;20191;-68
2021/12/31 02:13:49;;;;;;;0.75;0.73;;;;;;;;;;5125523;28;20195;-68
2021/12/31 02:16:17;;;;;;;0.90;0.90;;;;;;;;;;5125187;28;20201;-68
2021/12/31 02:18:44;;;;;;;1.00;0.80;;;;;;;;;;5125160;28;20202;-68
2021/12/31 02:21:13;;;;;;;1.08;0.90;;;;;;;;;;5125440;28;20223;-68
2021/12/31 02:23:44;;;;;;;1.02;1.02;;;;;;;;;;5125151;28;20195;-68
2021/12/31 02:26:11;;;;;;;1.98;1.13;;;;;;;;;;5125113;28;20406;-68
2021/12/31 02:28:37;;;;;;;1.25;1.00;;;;;;;;;;5125123;28;20203;-68
2021/12/31 02:31:04;;;;;;;3.42;0.88;;;;;;;;;;5125143;28;20465;-68
2021/12/31 02:33:30;;;;;;;0.80;0.80;;;;;;;;;;5124967;28;20499;-68
2021/12/31 02:35:57;;;;;;;1.27;0.80;;;;;;;;;;5124916;28;20195;-68
2021/12/31 02:38:25;;;;;;;0.88;0.88;;;;;;;;;;5125245;28;20195;-68
2021/12/31 02:40:51;;;;;;;1.10;0.95;;;;;;;;;;5125036;28;20215;-68
2021/12/31 02:43:17;;;;;;;3.33;1.00;;;;;;;;;;5124949;28;20195;-68
2021/12/31 02:45:44;;;;;;;0.90;0.90;;;;;;;;;;5124768;28;20215;-68
2021/12/31 02:48:11;;;;;;;1.00;0.90;;;;;;;;;;5124992;28;20556;-68
2021/12/31 02:50:39;;;;;;;0.88;0.88;;;;;;;;;;5124974;28;20195;-68
2021/12/31 02:53:07;;;;;;;0.82;0.82;;;;;;;;;;5124973;28;20371;-68
2021/12/31 02:55:37;;;;;;;3.58;1.08;;;;;;;;;;5124360;28;20195;-68
2021/12/31 02:58:04;;;;;;;3.22;1.10;;;;;;;;;;5124145;28;20198;-68
2021/12/31 03:00:34;;;;;;;1.40;0.88;;;;;;;;;;5124077;28;20207;-68
2021/12/31 03:03:01;;;;;;;0.60;0.60;;;;;;;;;;5124626;28;20376;-68
2021/12/31 03:05:28;;;;;;;1.38;0.80;;;;;;;;;;5124336;28;20194;-68
2021/12/31 03:07:55;;;;;;;0.77;0.75;;;;;;;;;;5124503;28;20502;-68
2021/12/31 03:10:22;;;;;;;0.80;0.80;;;;;;;;;;5124353;28;20194;-68
2021/12/31 03:12:50;;;;;;;3.05;1.00;;;;;;;;;;5124298;28;20195;-68
2021/12/31 03:15:17;;;;;;;1.38;0.90;;;;;;;;;;5123905;28;20378;-68
2021/12/31 03:17:44;;;;;;;1.63;0.90;;;;;;;;;;5124435;28;20544;-68
2021/12/31 03:20:13;;;;;;;1.02;1.02;;;;;;;;;;5123982;28;20201;-68
2021/12/31 03:22:41;;;;;;;1.40;0.90;;;;;;;;;;5124339;28;20199;-68
2021/12/31 03:25:08;;;;;;;8.68;1.45;;;;;;;;;;5123598;28;20301;-68
2021/12/31 03:27:35;;;;;;;0.95;0.95;;;;;;;;;;5123837;28;20195;-68
2021/12/31 03:30:03;;;;;;;0.80;0.77;;;;;;;;;;5123961;28;20195;-68
2021/12/31 03:32:29;;;;;;;1.15;1.15;;;;;;;;;;5124157;28;20491;-68
2021/12/31 03:34:56;;;;;;;1.40;0.80;;;;;;;;;;5123726;28;20206;-68
2021/12/31 03:37:22;;;;;;;4.22;0.90;;;;;;;;;;5123697;28;20195;-68
2021/12/31 03:39:49;;;;;;;2.22;0.70;;;;;;;;;;5123935;28;20195;-68
2021/12/31 03:42:16;;;;;;;2.65;0.88;;;;;;;;;;5123517;28;20410;-68
2021/12/31 03:44:43;;;;;;;1.27;1.00;;;;;;;;;;5123638;28;20223;-68
2021/12/31 03:47:11;;;;;;;2.95;1.05;;;;;;;;;;5123678;28;20195;-68
2021/12/31 03:49:37;;;;;;;1.48;1.38;;;;;;;;;;5123524;28;20195;-68
2021/12/31 03:52:04;;;;;;;0.98;0.98;;;;;;;;;;5123693;28;20363;-69
2021/12/31 03:54:30;;;;;;;1.17;1.08;;;;;;;;;;5123121;28;20199;-69
2021/12/31 03:56:57;;;;;;;0.80;0.80;;;;;;;;;;5123588;28;20206;-69
2021/12/31 03:59:23;;;;;;;3.65;1.15;;;;;;;;;;5123243;28;20202;-68
2021/12/31 04:01:49;;;;;;;2.47;1.10;;;;;;;;;;5123195;28;20218;-68
2021/12/31 04:04:17;;;;;;;2.50;0.90;;;;;;;;;;5123381;28;20194;-68
2021/12/31 04:06:44;;;;;;;0.75;0.75;;;;;;;;;;5122992;28;20195;-68
2021/12/31 04:09:10;;;;;;;1.25;1.10;;;;;;;;;;5123443;28;20195;-68
2021/12/31 04:11:36;;;;;;;4.47;1.55;;;;;;;;;;5122845;28;20198;-68
2021/12/31 04:14:03;;;;;;;3.20;0.90;;;;;;;;;;5123488;28;20202;-68
2021/12/31 04:16:30;;;;;;;0.88;0.88;;;;;;;;;;5123007;28;20202;-68
2021/12/31 04:18:57;;;;;;;1.23;1.20;;;;;;;;;;5123115;28;20572;-68
2021/12/31 04:21:25;;;;;;;0.82;0.82;;;;;;;;;;5123138;28;20402;-68
2021/12/31 04:24:03;;;;;;;0.95;0.95;;;;;;;;;;5122819;28;20206;-68
2021/12/31 04:26:29;;;;;;;0.93;0.93;;;;;;;;;;5122707;28;20199;-68
2021/12/31 04:28:56;;;;;;;0.90;0.90;;;;;;;;;;5123214;28;20202;-68
2021/12/31 04:31:22;;;;;;;2.40;1.10;;;;;;;;;;5122991;28;20191;-68
2021/12/31 04:33:49;;;;;;;1.73;1.25;;;;;;;;;;5123173;28;20384;-68
2021/12/31 04:36:15;;;;;;;1.42;1.33;;;;;;;;;;5122489;28;20217;-68
2021/12/31 04:38:43;;;;;;;1.52;1.10;;;;;;;;;;5123002;28;20552;-68
2021/12/31 04:41:09;;;;;;;1.08;1.02;;;;;;;;;;5122873;28;20211;-68
2021/12/31 04:43:36;;;;;;;4.57;1.30;;;;;;;;;;5122649;28;20202;-68
2021/12/31 04:46:02;;;;;;;3.45;2.05;;;;;;;;;;5122653;28;20215;-68
2021/12/31 04:48:28;;;;;;;1.42;1.33;;;;;;;;;;5122675;28;20187;-68
2021/12/31 04:50:55;;;;;;;2.30;1.40;;;;;;;;;;5122914;28;20194;-68
2021/12/31 04:53:21;;;;;;;2.30;1.08;;;;;;;;;;5122793;28;20194;-68
2021/12/31 04:55:50;;;;;;;2.45;1.10;;;;;;;;;;5122423;28;20210;-68
2021/12/31 04:58:16;;;;;;;1.42;1.20;;;;;;;;;;5122458;28;20207;-68
2021/12/31 05:00:43;;;;;;;1.77;1.30;;;;;;;;;;5122426;28;20194;-68
2021/12/31 05:03:09;;;;;;;1.20;1.10;;;;;;;;;;5122569;28;20247;-68
2021/12/31 05:05:36;;;;;;;1.33;1.30;;;;;;;;;;5122463;28;20582;-68
2021/12/31 05:08:03;;;;;;;1.20;1.20;;;;;;;;;;5122577;28;20191;-68
2021/12/31 05:10:31;;;;;;;1.10;1.10;;;;;;;;;;5122631;28;20195;-69
2021/12/31 05:12:59;;;;;;;4.95;1.00;;;;;;;;;;5122429;28;20195;-68
2021/12/31 05:15:27;;;;;;;2.95;1.27;;;;;;;;;;5122159;28;20240;-68
2021/12/31 05:17:54;;;;;;;1.98;1.42;;;;;;;;;;5122577;28;20388;-68
2021/12/31 05:20:21;;;;;;;1.50;1.40;;;;;;;;;;5122250;28;20195;-68
2021/12/31 05:22:47;;;;;;;1.17;1.15;;;;;;;;;;5124640;28;20448;-68
2021/12/31 05:25:14;;;;;;;1.45;1.23;;;;;;;;;;5126465;28;20205;-68
2021/12/31 05:27:40;;;;;;;1.10;1.10;;;;;;;;;;5126302;28;20203;-68
2021/12/31 05:30:09;;;;;;;1.35;1.35;;;;;;;;;;5126371;28;20203;-68
2021/12/31 05:32:35;;;;;;;2.35;1.40;;;;;;;;;;5126151;28;20191;-68
2021/12/31 05:35:02;;;;;;;1.90;1.70;;;;;;;;;;5126491;28;20203;-68
2021/12/31 05:37:28;;;;;;;1.40;1.40;;;;;;;;;;5126080;28;20202;-68
2021/12/31 05:39:54;;;;;;;1.67;1.58;;;;;;;;;;5126265;28;20233;-68
2021/12/31 05:42:21;;;;;;;4.53;1.75;;;;;;;;;;5126043;28;20446;-68
2021/12/31 05:44:48;;;;;;;1.50;1.38;;;;;;;;;;5125703;28;20215;-68
2021/12/31 05:47:16;;;;;;;1.73;1.63;;;;;;;;;;5125889;28;20206;-68
2021/12/31 05:49:42;;;;;;;1.88;1.77;;;;;;;;;;5126299;28;20195;-68
2021/12/31 05:52:09;;;;;;;1.77;1.67;;;;;;;;;;5125941;28;20391;-68
2021/12/31 05:54:35;;;;;;;3.35;1.95;;;;;;;;;;5125571;28;20195;-68
2021/12/31 05:57:01;;;;;;;1.70;1.60;;;;;;;;;;5126022;28;20202;-68
2021/12/31 05:59:28;;;;;;;2.88;1.60;;;;;;;;;;5125750;28;20397;-68
2021/12/31 06:01:54;;;;;;;3.22;1.98;;;;;;;;;;5125614;28;20254;-68
2021/12/31 06:04:23;;;;;;;2.30;2.20;;;;;;;;;;5125684;28;20195;-68
2021/12/31 06:06:49;;;;;;;2.30;2.10;;;;;;;;;;5125566;28;20218;-68
2021/12/31 06:09:16;;;;;;;2.20;2.10;;;;;;;;;;5125629;28;20203;-68
2021/12/31 06:11:42;;;;;;;3.13;3.03;;;;;;;;;;5125524;28;20198;-68
2021/12/31 06:14:09;;;;;;;2.70;2.53;;;;;;;;;;5125678;28;20377;-68
2021/12/31 06:16:40;;;;;;;2.70;2.60;;;;;;;;;;5125321;28;20264;-68
2021/12/31 06:19:08;;;;;;;2.40;2.30;;;;;;;;;;5125535;28;20198;-68
2021/12/31 06:21:36;;;;;;;3.22;3.00;;;;;;;;;;5125329;28;20263;-68
2021/12/31 06:24:02;;;;;;;4.63;3.70;;;;;;;;;;5125435;28;20240;-68
2021/12/31 06:26:29;;;;;;;3.22;2.97;;;;;;;;;;5125006;28;20233;-68
2021/12/31 06:28:55;;;;;;;5.97;5.38;;;;;;;;;;5125111;28;20210;-68
2021/12/31 06:31:22;;;;;;;5.55;4.38;;;;;;;;;;5125308;28;20199;-68
2021/12/31 06:33:48;;;;;;;3.15;2.70;;;;;;;;;;5124818;28;20202;-68
2021/12/31 06:36:15;;;;;;;2.72;2.55;;;;;;;;;;5124967;28;20195;-68
2021/12/31 06:38:43;;;;;;;2.55;2.38;;;;;;;;;;5125227;28;20195;-68
2021/12/31 06:41:10;;;;;;;2.38;2.17;;;;;;;;;;5124841;28;20266;-68
2021/12/31 06:43:37;;;;;;;2.53;2.30;;;;;;;;;;5125159;28;20202;-68
2021/12/31 06:46:03;;;;;;;2.45;2.08;;;;;;;;;;5124872;28;20215;-68
2021/12/31 06:48:29;;;;;;;3.85;2.40;;;;;;;;;;5124724;28;20199;-69
2021/12/31 06:50:56;;;;;;;2.33;2.22;;;;;;;;;;5124713;28;20195;-68
2021/12/31 06:53:22;;;;;;;3.58;2.78;;;;;;;;;;5124697;28;20191;-68
2021/12/31 06:55:50;;;;;;;6.03;2.30;;;;;;;;;;5124403;28;20195;-68
2021/12/31 06:58:16;;;;;;;2.58;2.47;;;;;;;;;;5123755;28;20203;-68
2021/12/31 07:00:43;;;;;;;3.85;2.42;;;;;;;;;;5124856;28;20184;-68
2021/12/31 07:03:10;;;;;;;2.58;2.38;;;;;;;;;;5124516;28;20215;-68
2021/12/31 07:05:37;;;;;;;4.75;2.45;;;;;;;;;;5124145;28;20195;-68
2021/12/31 07:08:03;;;;;;;2.50;2.40;;;;;;;;;;5124439;28;20194;-57
2021/12/31 07:10:30;;;;;;;2.90;2.70;;;;;;;;;;5124265;28;20195;-58
2021/12/31 07:12:58;;;;;;;2.63;2.42;;;;;;;;;;5124569;28;20217;-57
2021/12/31 07:15:25;;;;;;;2.10;2.10;;;;;;;;;;5124420;28;20217;-58
2021/12/31 07:17:51;;;;;;;2.53;2.30;;;;;;;;;;5124376;28;20540;-58
2021/12/31 07:20:18;;;;;;;2.78;2.58;;;;;;;;;;5123948;28;20211;-58
2021/12/31 07:22:44;;;;;;;3.60;3.30;;;;;;;;;;5122817;28;20222;-57
2021/12/31 07:25:11;;;;;;;2.47;2.30;;;;;;;;;;5122994;28;20203;-56
2021/12/31 07:27:37;;;;;;;3.50;2.63;;;;;;;;;;5124052;28;20217;-58
2021/12/31 07:30:05;;;;;;;2.63;2.47;;;;;;;;;;5123814;28;20202;-56
2021/12/31 07:32:35;;;;;;;3.55;2.83;;;;;;;;;;5123712;28;20192;-58
2021/12/31 07:35:01;;;;;;;2.35;2.25;;;;;;;;;;5123710;28;20195;-58
2021/12/31 07:37:28;;;;;;;2.50;2.40;;;;;;;;;;5123910;28;20236;-58
2021/12/31 07:40:00;;;;;;;2.88;2.63;;;;;;;;;;5123903;28;20195;-58
2021/12/31 07:42:27;;;;;;;4.60;3.35;;;;;;;;;;5123809;28;20203;-57
2021/12/31 07:44:53;;;;;;;3.55;3.08;;;;;;;;;;5122601;28;20236;-58
2021/12/31 07:47:21;;;;;;;3.67;3.38;;;;;;;;;;5123614;28;20195;-58
2021/12/31 07:49:47;;;;;;;4.40;4.00;;;;;;;;;;5123414;28;20195;-57
2021/12/31 07:52:14;;;;;;;3.50;3.20;;;;;;;;;;5123318;28;20191;-58
2021/12/31 07:54:40;;;;;;;3.78;3.47;;;;;;;;;;5123434;28;20195;-58
2021/12/31 07:57:06;;;;;;;4.25;3.97;;;;;;;;;;5123491;28;20485;-58
2021/12/31 07:59:33;;;;;;;6.05;4.20;;;;;;;;;;5123222;28;20211;-58
2021/12/31 08:01:59;;;;;;;4.22;3.83;;;;;;;;;;5123457;28;20256;-58
2021/12/31 08:04:27;;;;;;;3.80;3.55;;;;;;;;;;5123390;28;20368;-56
2021/12/31 08:06:53;;;;;;;4.28;3.88;;;;;;;;;;5123069;28;20503;-56
2021/12/31 08:09:20;;;;;;;4.03;3.30;;;;;;;;;;5123335;28;20202;-56
2021/12/31 08:11:46;;;;;;;3.60;3.30;;;;;;;;;;5123447;28;20195;-58
2021/12/31 08:14:13;;;;;;;3.65;3.38;;;;;;;;;;5123050;28;20216;-56
2021/12/31 08:16:39;;;;;;;3.05;2.80;;;;;;;;;;5122796;28;20202;-58
2021/12/31 08:19:06;;;;;;;3.10;3.00;;;;;;;;;;5122762;28;20218;-58
2021/12/31 08:21:34;;;;;;;3.65;3.42;;;;;;;;;;5122935;28;20266;-57
2021/12/31 08:24:01;;;;;;;4.30;3.90;;;;;;;;;;5122523;28;20223;-58
2021/12/31 08:26:27;;;;;;;4.63;3.85;;;;;;;;;;5122414;28;20195;-58
2021/12/31 08:28:55;;;;;;;4.57;4.18;;;;;;;;;;5122887;28;20203;-58
2021/12/31 08:31:21;;;;;;;4.63;4.25;;;;;;;;;;5123175;28;20240;-58
2021/12/31 08:33:48;;;;;;;4.75;4.35;;;;;;;;;;5122743;28;20228;-58
2021/12/31 08:36:14;;;;;;;4.57;4.28;;;;;;;;;;5122863;28;20195;-56
2021/12/31 08:38:42;;;;;;;5.35;4.40;;;;;;;;;;5123109;28;20222;-57
2021/12/31 08:41:08;;;;;;;5.35;4.85;;;;;;;;;;5107114;28;20357;-57
2021/12/31 08:43:35;;;;;;;5.43;4.95;;;;;;;;;;5115070;28;20435;-57
2021/12/31 08:46:01;;;;;;;6.30;4.63;;;;;;;;;;5113603;27;20226;-59
2021/12/31 08:48:27;;;;;;;4.85;4.45;;;;;;;;;;5115411;28;20484;-59
2021/12/31 08:50:54;;;;;;;6.38;4.55;;;;;;;;;;5116432;28;20526;-59
2021/12/31 08:53:20;;;;;;;4.45;4.10;;;;;;;;;;5116191;28;20226;-59
2021/12/31 08:55:48;;;;;;;4.68;4.22;;;;;;;;;;5115114;28;20207;-58
2021/12/31 08:58:15;;;;;;;5.15;3.67;;;;;;;;;;5119353;28;20214;-58
2021/12/31 09:00:41;;;;;;;4.32;4.00;;;;;;;;;;5126333;28;20183;-59
2021/12/31 09:03:08;;;;;;;3.80;3.55;;;;;;;;;;5126347;28;20230;-60
2021/12/31 09:05:34;;;;;;;4.15;3.78;;;;;;;;;;5126286;28;20194;-58
2021/12/31 09:08:01;;;;;;;4.05;3.75;;;;;;;;;;5126788;28;20553;-59
2021/12/31 09:10:27;;;;;;;3.67;3.47;;;;;;;;;;5125482;28;20195;-59
2021/12/31 09:12:56;;;;;;;4.43;4.13;;;;;;;;;;5126982;28;20515;-58
2021/12/31 09:15:22;;;;;;;4.82;4.38;;;;;;;;;;5126666;28;20195;-59
2021/12/31 09:17:49;;;;;;;5.55;4.43;;;;;;;;;;5126676;28;20386;-57
2021/12/31 09:20:15;;;;;;;4.20;3.90;;;;;;;;;;5126704;28;20194;-59
2021/12/31 09:22:42;;;;;;;8.82;4.60;;;;;;;;;;5126403;28;20438;-57
2021/12/31 09:25:09;;;;;;;4.38;4.00;;;;;;;;;;5126115;28;20195;-57
2021/12/31 09:27:35;;;;;;;5.03;4.00;;;;;;;;;;5126554;28;20422;-60
2021/12/31 09:30:03;;;;;;;4.80;4.40;;;;;;;;;;5126116;28;20202;-59
2021/12/31 09:32:29;;;;;;;3.47;3.17;;;;;;;;;;5126446;28;20191;-60
2021/12/31 09:34:56;;;;;;;4.32;4.03;;;;;;;;;;5125769;28;20202;-60
2021/12/31 09:37:22;;;;;;;3.42;3.22;;;;;;;;;;5126006;28;20195;-60
2021/12/31 09:39:49;;;;;;;3.40;3.10;;;;;;;;;;5126216;28;20202;-60
2021/12/31 09:42:15;;;;;;;3.10;2.83;;;;;;;;;;5125897;28;20191;-58
2021/12/31 09:44:46;;;;;;;4.28;3.88;;;;;;;;;;5125912;28;20215;-60
2021/12/31 09:47:15;;;;;;;4.35;4.05;;;;;;;;;;5126016;28;20209;-60
2021/12/31 09:49:42;;;;;;;4.25;3.95;;;;;;;;;;5125738;28;20195;-60
2021/12/31 09:52:08;;;;;;;4.80;4.13;;;;;;;;;;5125829;28;20217;-59
2021/12/31 09:54:35;;;;;;;3.85;3.55;;;;;;;;;;5125849;28;20266;-60
2021/12/31 09:57:02;;;;;;;3.28;3.08;;;;;;;;;;5125567;27;20386;-58
2021/12/31 09:59:29;;;;;;;2.50;2.40;;;;;;;;;;5125692;27;20232;-58
2021/12/31 10:01:56;;;;;;;2.97;2.70;;;;;;;;;;5125804;28;20199;-59
2021/12/31 10:04:23;;;;;;;2.85;2.33;;;;;;;;;;5125804;28;20215;-59
2021/12/31 10:07:06;;;;;;;9.88;7.22;;;;;;;;;;5125586;28;20195;-57
2021/12/31 10:09:33;;;;;;;2.45;2.35;;;;;;;;;;5124997;28;20187;-57
2021/12/31 10:12:00;;;;;;;3.13;2.92;;;;;;;;;;5125634;28;20234;-59
2021/12/31 10:14:34;;;;;;;3.63;3.30;;;;;;;;;;5125339;28;20199;-59
2021/12/31 10:17:00;;;;;;;2.72;2.60;;;;;;;;;;5125500;28;20195;-58
2021/12/31 10:19:28;;;;;;;2.40;2.30;;;;;;;;;;5125713;28;20606;-59
2021/12/31 10:21:56;;;;;;;6.65;2.60;;;;;;;;;;5125475;28;20195;-59
2021/12/31 10:24:25;;;;;;;2.63;2.50;;;;;;;;;;5125055;28;20215;-59
2021/12/31 10:26:51;;;;;;;2.67;2.58;;;;;;;;;;5125012;28;20232;-59
2021/12/31 10:29:18;;;;;;;2.78;2.67;;;;;;;;;;5124726;28;20195;-59
2021/12/31 10:31:45;;;;;;;3.88;2.30;;;;;;;;;;5125108;28;20221;-61
2021/12/31 10:34:25;;;;;;;2.08;1.98;;;;;;;;;;5125271;28;20356;-61
2021/12/31 10:36:52;;;;;;;2.58;2.47;;;;;;;;;;5124849;28;20191;-60
2021/12/31 10:39:20;;;;;;;1.95;1.85;;;;;;;;;;5124759;28;20195;-61
2021/12/31 10:41:50;;;;;;;2.22;2.13;;;;;;;;;;5125003;28;20195;-61
2021/12/31 10:44:16;;;;;;;1.95;1.92;;;;;;;;;;5124743;28;20208;-60
2021/12/31 10:46:43;;;;;;;2.10;2.00;;;;;;;;;;5125204;28;20195;-61
2021/12/31 10:49:11;;;;;;;1.73;1.63;;;;;;;;;;5124744;28;20202;-60
2021/12/31 10:51:41;;;;;;;2.13;2.13;;;;;;;;;;5124747;28;20241;-60
2021/12/31 10:54:27;;;;;;;3.15;2.13;;;;;;;;;;5124729;28;20499;-61
2021/12/31 10:56:54;;;;;;;2.72;2.53;;;;;;;;;;5124598;28;20406;-60
2021/12/31 10:59:20;;;;;;;2.28;2.13;;;;;;;;;;5124535;28;20203;-60
2021/12/31 11:01:47;;;;;;;2.50;2.40;;;;;;;;;;5124343;28;20397;-60
2021/12/31 11:04:14;;;;;;;2.30;2.20;;;;;;;;;;5124580;28;20265;-60
2021/12/31 11:06:41;;;;;;;2.92;2.70;;;;;;;;;;5123820;28;20195;-60
2021/12/31 11:09:07;;;;;;;2.75;2.55;;;;;;;;;;5123883;28;20201;-60
2021/12/31 11:11:35;;;;;;;2.30;2.22;;;;;;;;;;5123912;28;20195;-61
2021/12/31 11:14:02;;;;;;;2.83;2.72;;;;;;;;;;5123759;28;20192;-60
2021/12/31 11:16:28;;;;;;;2.38;2.28;;;;;;;;;;5123662;27;20195;-60
2021/12/31 11:18:56;;;;;;;2.75;2.30;;;;;;;;;;5123863;28;20386;-59
2021/12/31 11:21:23;;;;;;;2.80;2.70;;;;;;;;;;5123392;28;20195;-61
2021/12/31 11:23:49;;;;;;;2.38;2.28;;;;;;;;;;5123951;28;20215;-60
2021/12/31 11:26:26;;;;;;;2.67;2.58;;;;;;;;;;5123455;28;20468;-60
2021/12/31 11:28:55;;;;;;;2.53;2.42;;;;;;;;;;5123485;28;20201;-62
2021/12/31 11:31:22;;;;;;;3.05;2.67;;;;;;;;;;5123709;28;20390;-62
2021/12/31 11:34:11;;;;;;;2.25;2.25;;;;;;;;;;5123682;28;20391;-60
2021/12/31 11:36:40;;;;;;;2.25;2.15;;;;;;;;;;5123560;28;20266;-61
2021/12/31 11:39:13;;;;;;;2.20;2.10;;;;;;;;;;5123513;28;20218;-61
2021/12/31 11:41:41;;;;;;;2.25;2.10;;;;;;;;;;5123277;28;20191;-60
2021/12/31 11:44:09;;;;;;;2.53;2.42;;;;;;;;;;5123226;28;20556;-60
2021/12/31 11:46:36;;;;;;;2.13;1.88;;;;;;;;;;5122967;28;20260;-60
2021/12/31 11:49:04;;;;;;;1.80;1.55;;;;;;;;;;5123035;28;20236;-59
2021/12/31 11:51:34;;;;;;;2.00;1.85;;;;;;;;;;5122965;28;20380;-60
2021/12/31 11:54:17;;;;;;;2.72;1.73;;;;;;;;;;5123244;28;20199;-59
2021/12/31 11:56:56;;;;;;;1.85;1.85;;;;;;;;;;5122997;28;20517;-60
2021/12/31 11:59:34;;;;;;;1.77;1.30;;;;;;;;;;5122733;28;20202;-59
2021/12/31 12:02:13;;;;;;;1.30;1.30;;;;;;;;;;5122788;28;20502;-60
2021/12/31 12:04:40;;;;;;;1.80;1.70;;;;;;;;;;5122570;28;20246;-60
2021/12/31 12:07:07;;;;;;;1.05;1.05;;;;;;;;;;5122979;28;20232;-61
2021/12/31 12:09:52;;;;;;;1.67;1.00;;;;;;;;;;5122799;28;20218;-61
2021/12/31 12:12:26;;;;;;;1.02;1.02;;;;;;;;;;5122924;28;20495;-61
2021/12/31 12:14:54;;;;;;;1.25;1.25;;;;;;;;;;5122815;28;20179;-61
2021/12/31 12:17:43;;;;;;;1.30;1.30;;;;;;;;;;5122724;28;20202;-61
2021/12/31 12:20:10;;;;;;;1.25;1.25;;;;;;;;;;5122818;28;20224;-61
2021/12/31 12:22:38;;;;;;;1.50;1.10;;;;;;;;;;5122764;28;20195;-61
2021/12/31 12:25:05;;;;;;;3.08;2.80;;;;;;;;;;5122153;28;20293;-61
2021/12/31 12:27:32;;;;;;;1.75;1.73;;;;;;;;;;5122384;28;20195;-60
2021/12/31 12:30:00;;;;;;;1.88;1.13;;;;;;;;;;5122417;28;20494;-61
2021/12/31 12:32:33;;;;;;;1.35;1.27;;;;;;;;;;5122468;28;20203;-61
2021/12/31 12:34:59;;;;;;;1.05;1.05;;;;;;;;;;5122236;28;20191;-61
2021/12/31 12:37:26;;;;;;;1.23;1.20;;;;;;;;;;5122136;28;20210;-61
2021/12/31 12:39:57;;;;;;;1.50;1.40;;;;;;;;;;5122422;28;20203;-61
2021/12/31 12:42:24;;;;;;;0.95;0.95;;;;;;;;;;5122131;28;20207;-61
2021/12/31 12:44:57;;;;;;;1.50;1.40;;;;;;;;;;5122108;28;20230;-60
2021/12/31 12:47:25;;;;;;;1.92;1.60;;;;;;;;;;5122453;28;20217;-61
2021/12/31 12:49:54;;;;;;;1.52;1.52;;;;;;;;;;5122235;28;20195;-60
2021/12/31 12:52:21;;;;;;;1.92;1.73;;;;;;;;;;5122140;28;20203;-60
2021/12/31 12:54:47;;;;;;;1.52;1.42;;;;;;;;;;5122170;28;20192;-59
2021/12/31 12:57:23;;;;;;;1.45;1.40;;;;;;;;;;5122262;28;20361;-59
2021/12/31 12:59:49;;;;;;;1.30;1.30;;;;;;;;;;5122236;28;20207;-60
2021/12/31 13:02:16;;;;;;;1.63;1.63;;;;;;;;;;5122214;28;20195;-60
2021/12/31 13:04:44;;;;;;;6.75;4.50;;;;;;;;;;5121796;28;20535;-61
2021/12/31 13:07:12;;;;;;;1.95;1.85;;;;;;;;;;5122309;28;20194;-60
2021/12/31 13:09:38;;;;;;;1.75;1.23;;;;;;;;;;5122538;28;20187;-61
2021/12/31 13:12:07;;;;;;;1.73;1.63;;;;;;;;;;5122570;28;20205;-59
2021/12/31 13:14:36;;;;;;;2.05;1.90;;;;;;;;;;5122065;28;20225;-59
2021/12/31 13:17:03;;;;;;;2.00;1.70;;;;;;;;;;5122233;28;20202;-61
2021/12/31 13:19:30;;;;;;;1.92;1.48;;;;;;;;;;5122501;28;20203;-61
2021/12/31 13:22:02;;;;;;;1.48;1.48;;;;;;;;;;5122215;28;20237;-61
2021/12/31 13:24:29;;;;;;;1.48;1.48;;;;;;;;;;5122040;28;20406;-61
2021/12/31 13:26:57;;;;;;;1.88;1.55;;;;;;;;;;5122348;28;20265;-60
2021/12/31 13:29:30;;;;;;;1.50;1.42;;;;;;;;;;5122203;28;20416;-60
2021/12/31 13:32:04;;;;;;;5.32;2.65;;;;;;;;;;5122121;28;20195;-61
2021/12/31 13:34:38;;;;;;;4.72;4.20;;;;;;;;;;5122294;28;20232;-61
2021/12/31 13:37:06;;;;;;;3.88;3.45;;;;;;;;;;5122185;28;20198;-60
2021/12/31 13:39:38;;;;;;;2.58;2.47;;;;;;;;;;5122215;28;20195;-60
2021/12/31 13:42:06;;;;;;;2.20;2.10;;;;;;;;;;5122038;28;20502;-61
2021/12/31 13:44:33;;;;;;;2.00;1.85;;;;;;;;;;5125154;28;20223;-61
2021/12/31 13:47:07;;;;;;;1.50;1.50;;;;;;;;;;5126116;28;20248;-60
2021/12/31 13:49:37;;;;;;;1.25;1.25;;;;;;;;;;5125858;28;20193;-61
2021/12/31 13:52:18;;;;;;;1.42;1.33;;;;;;;;;;5126022;28;20689;-61
2021/12/31 13:54:47;;;;;;;1.35;1.30;;;;;;;;;;5125458;28;20191;-60
2021/12/31 13:57:17;;;;;;;2.30;2.20;;;;;;;;;;5125625;28;20202;-60
2021/12/31 13:59:44;;;;;;;2.10;2.00;;;;;;;;;;5125553;28;20210;-60
2021/12/31 14:02:12;;;;;;;1.48;1.48;;;;;;;;;;5125931;28;20195;-61
2021/12/31 14:04:57;;;;;;;1.65;1.65;;;;;;;;;;5125243;28;20225;-59
2021/12/31 14:07:33;;;;;;;1.88;1.77;;;;;;;;;;5125748;28;20195;-60
2021/12/31 14:09:59;;;;;;;1.58;1.48;;;;;;;;;;5125503;28;20420;-60
2021/12/31 14:12:26;;;;;;;1.60;1.50;;;;;;;;;;5125478;28;20218;-60
2021/12/31 14:14:52;;;;;;;1.80;1.70;;;;;;;;;;5125181;28;20360;-61
2021/12/31 14:17:19;;;;;;;1.73;1.60;;;;;;;;;;5125537;28;20211;-61
2021/12/31 14:19:45;;;;;;;1.80;1.80;;;;;;;;;;5125136;28;20495;-60
2021/12/31 14:22:12;;;;;;;1.60;1.50;;;;;;;;;;5125542;28;20195;-61
2021/12/31 14:24:40;;;;;;;1.63;1.23;;;;;;;;;;5125138;28;20218;-61
2021/12/31 14:27:07;;;;;;;1.40;1.40;;;;;;;;;;5125317;28;20195;-61
2021/12/31 14:29:34;;;;;;;1.52;1.52;;;;;;;;;;5125013;28;20201;-61
2021/12/31 14:32:01;;;;;;;1.85;1.75;;;;;;;;;;5125383;28;20218;-61
2021/12/31 14:34:29;;;;;;;1.90;1.80;;;;;;;;;;5125102;28;20256;-61
2021/12/31 14:36:57;;;;;;;1.95;1.85;;;;;;;;;;5125314;28;20195;-61
2021/12/31 14:39:24;;;;;;;1.65;1.55;;;;;;;;;;5125027;28;20327;-61
2021/12/31 14:41:52;;;;;;;2.08;1.98;;;;;;;;;;5125164;28;20564;-61
2021/12/31 14:44:18;;;;;;;1.52;1.42;;;;;;;;;;5124712;28;20222;-61
2021/12/31 14:46:45;;;;;;;2.13;2.03;;;;;;;;;;5124484;28;20499;-60
2021/12/31 14:49:11;;;;;;;2.10;2.00;;;;;;;;;;5124868;28;20399;-61
2021/12/31 14:51:38;;;;;;;2.30;2.20;;;;;;;;;;5124501;28;20195;-61